KUCY/UCY METAR and TAF weather

Enter ICAO airport designator
Station Type Date Time Source
KUCY METAR 2021/01/17 18:55 UTC NOAA

KUCY 171855Z AUTO 28014G21KT 10SM SCT034 07/M01 A2986 RMK A01


Station Type Date Time Source
KUCY Decoded METAR 2021/01/17 18:55 UTC NOAA

Station name not available
Jan 17, 2021 - 01:55 PM EST / 2021.01.17 1855 UTC
Wind: from the W (280 degrees) at 16 MPH (14 KT) gusting to 24 MPH (21 KT):0
Visibility: 10 mile(s):0
Sky conditions: partly cloudy
Temperature: 44 F (7 C)
Dew Point: 30 F (-1 C)
Relative Humidity: 56%
Pressure (altimeter): 29.86 in. Hg (1011 hPa)
ob: KUCY 171855Z AUTO 28014G21KT 10SM SCT034 07/M01 A2986 RMK A01
cycle: 19

Station Type Date Time Source
KUCY TAF UTC NOAA

Error!

Example: see airport list